Tiempo atmosférico en la estación meteorológica de Moguer, El Arenosillo, Huelva (41 m.)



Fecha
DESCASC
Temp. máxima en grados centígrados (hora)
DESCASC
Temp. mínima en grados centígrados (hora)
DESCASC
Temp. media en grados centígrados
DESCASC
Racha de viento máxima en m/sg (hora)
DESCASC
Velocidad máxima media en intervalos de 10 minutos(hora)
DESCASC
Precipitaciones diarias en mm
DESCASC
Precipitaciones de 00:00 a 06:00 en mm
DESCASC
Precipitaciones de 06:00 a 12:00 en mm
DESCASC
Precipitaciones de 12:00 a 18:00 en mm
DESCASC
Precipitaciones de 18:00 a 24:00 en mm
DESCASC
09-01-2020 14 (17:30) 2.6 (00:00) 8.3 5 (10:40) 2.5 (10:20) 0 0 0 0 0
25-01-2020 14.8 (15:50) 9.1 (00:00) 12 9.44 (03:20) 3.06 (17:40) 3.4 1 2 0.4 0
03-01-2020 16.6 (14:00) 9.6 (00:00) 13.1 5.28 (17:10) 3.06 (17:10) 0 0 0 0 0
14-01-2020 15.4 (14:40) 4.5 (00:00) 9.9 6.11 (11:00) 3.33 (10:50) 0 0 0 0 0
02-01-2020 17 (14:30) 6.4 (00:00) 11.7 5.28 (12:30) 3.33 (07:40) 0 0 0 0 0
13-01-2020 16.1 (13:10) 4.7 (00:00) 10.4 5.56 (04:50) 3.61 (04:50) 0 0 0 0 0
01-01-2020 18 (14:10) 6.7 (00:00) 12.3 7.5 (10:00) 3.61 (10:30) 0 0 0 0 0
17-01-2020 19 (16:40) 10.8 (00:00) 14.9 5.56 (01:00) 3.61 (11:20) 1 1 0 0 0
12-01-2020 17.7 (13:50) 5.5 (00:00) 11.6 6.39 (10:20) 3.89 (11:20) 0 0 0 0 0
15-01-2020 17.7 (16:00) 6.7 (00:00) 12.2 7.5 (12:00) 3.89 (12:10) 0 0 0 0 0
06-01-2020 16.6 (16:40) 5.5 (00:00) 11.1 5.28 (06:40) 3.89 (06:40) 0 0 0 0 0
16-01-2020 17.2 (14:00) 7.5 (00:00) 12.4 6.67 (11:00) 4.17 (10:40) 0 0 0 0 0
04-01-2020 15.6 (15:10) 7.1 (00:00) 11.4 6.67 (11:40) 4.17 (12:10) 0 0 0 0 0
30-12-2019 17.4 (16:50) 6.6 (00:00) 12 6.94 (11:10) 4.17 (11:00) 0 0 0 0 0
29-12-2019 19.3 (15:40) 7.7 (00:00) 13.5 6.39 (09:40) 4.17 (09:40) 0 0 0 0 0
22-01-2020 11.2 (17:30) 7.4 (00:00) 9.3 20.28 (23:00) 4.44 (20:40) 24.3 0 2.9 9.8 11.6
28-12-2019 18.7 (13:00) 9.1 (00:00) 13.9 6.67 (11:10) 4.44 (11:00) 0 0 0 0 0
27-12-2019 22.7 (14:00) 12.2 (00:00) 17.5 6.39 (02:20) 4.44 (02:20) 0 0 0 0 0
08-01-2020 17.7 (13:10) 5.2 (00:00) 11.5 6.67 (08:30) 4.72 (08:20) 0 0 0 0 0
05-01-2020 17.6 (16:00) 9 (00:00) 13.3 12.22 (11:10) 4.72 (10:50) 0 0 0 0 0
21-01-2020 15.2 (13:30) 5.7 (00:00) 10.4 8.33 (14:00) 4.72 (00:40) 0 0 0 0 0
31-12-2019 18.1 (14:20) 7.5 (00:00) 12.8 7.5 (11:40) 4.72 (11:20) 0 0 0 0 0
24-01-2020 14.4 (13:10) 9.1 (00:00) 11.8 9.72 (17:10) 5 (13:00) 9.6 0.1 0.2 5.5 3.8
10-01-2020 16.9 (15:40) 6.9 (00:00) 11.9 10 (03:20) 5.28 (03:20) 0 0 0 0 0
07-01-2020 17.9 (14:40) 6 (00:00) 11.9 8.06 (11:00) 5.28 (11:10) 0 0 0 0 0
11-01-2020 17.9 (14:40) 7.1 (00:00) 12.5 9.17 (11:40) 5.83 (11:20) 0 0 0 0 0
23-01-2020 13.4 (16:50) 9.4 (00:00) 11.4 12.22 (11:00) 6.39 (07:10) 29.6 7 6.5 15 1.1
18-01-2020 16.9 (17:20) 10.3 (00:00) 13.6 11.39 (23:00) 6.67 (23:10) 2.9 0 0.5 2.4 0
19-01-2020 17.6 (16:30) 9 (00:00) 13.3 12.78 (22:20) 7.22 (22:30) 0 0 0 0 0
20-01-2020 13.2 (14:30) 6.5 (00:00) 9.8 17.22 (13:10) 9.17 (13:10) 0 0 0 0 0

Gráficas

Temp. máximas Temp. mínimas Temp. medias Precipitaciones Rachas de viento máximas Velocidades máximas media en intervalos de 10 minutos

Datos horarios

Fecha y hora oficial Temperatura (ºC) Velocidad del viento (km/h) Dirección del viento Racha (km/h) Dirección de racha Precipitación (mm) Presión (hPa) Tendencia (hPa) Humedad (%)
2020-01-25 23:00:00 10.7 3 Noroeste 6 Noroeste 0 1015.8 1.9 98
2020-01-25 22:00:00 11 4 Noroeste 9 Norte 0 1015.2 2.3 97
2020-01-25 21:00:00 11.8 5 Norte 8 Noroeste 0 1014.5 2.8 96
2020-01-25 20:00:00 12.2 6 Noroeste 14 Noroeste 0 1013.9 2.7 93
2020-01-25 19:00:00 13 6 Noroeste 13 Oeste 0 1012.9 1.8 92
2020-01-25 18:00:00 13.6 7 Oeste 16 Oeste 0 1011.7 0.8 88
2020-01-25 17:00:00 14.6 6 Sudoeste 11 Sudoeste 0 1011.2 0 86
2020-01-25 16:00:00 14.5 7 Sudoeste 9 Sudoeste 0 1011.1 -0.9 86
2020-01-25 15:00:00 14.3 5 Sur 14 Nordeste 0 1010.9 -0.8 88
2020-01-25 14:00:00 13.5 7 Este 12 Este 0 1011.2 -0.3 96
2020-01-25 13:00:00 12.5 4 Este 12 Este 0.4 1012 1 99
2020-01-25 12:00:00 11.6 9 Nordeste 16 Este 0 1011.7 1.1 99
2020-01-25 11:00:00 12.3 6 Este 12 Este 0.7 1011.5 1.5 99
2020-01-25 10:00:00 11.6 5 Nordeste 10 Este 0.3 1011 1.2 99
2020-01-25 09:00:00 11.2 6 Este 10 Este 0.4 1010.6 0.9 99
2020-01-25 08:00:00 10.9 6 Este 16 Este 0.2 1010 -0.1 99
2020-01-25 07:00:00 10.6 9 Este 15 Este 0.4 1009.8 -0.5 99
2020-01-25 06:00:00 10.8 3 Este 22 Sudeste 0.2 1009.7 -1 98
2020-01-25 05:00:00 10.8 8 Sudeste 20 Este 0.1 1010.1 -0.8 99
2020-01-25 04:00:00 9.9 7 Este 34 Este 0 1010.3 -1.4 98
2020-01-25 03:00:00 10.9 8 Sudeste 21 Sudeste 0 1010.7 -1.6 99
2020-01-25 02:00:00 11.2 5 Sudeste 13 Sudeste 0.2 1010.9 -0.9 99
2020-01-25 01:00:00 10.7 5 Este 9 Este 0.5 1011.7 -0.1 97
2020-01-25 00:00:00 11.1 6 Norte 16 Sur 0.8 1012.3 0.8 94
2020-01-24 23:00:00 11.5 4 Sudeste 13 Sur 0 1011.8 0.8 95
2020-01-24 22:00:00 12.6 6 Sur 15 Sudoeste 0 1011.8 1.6 95
2020-01-24 21:00:00 11.5 0 Calma 8 Sur 0 1011.5 1.2 98
2020-01-24 20:00:00 12.4 8 Sudoeste 22 Sudoeste 0.7 1011 0.9 96
2020-01-24 19:00:00 12.3 7 Sudoeste 19 Sur 2.3 1010.2 -0.7 97
2020-01-24 18:00:00 12.2 10 Este 35 Sudeste 0.7 1010.3 -1.4 98
2020-01-24 17:00:00 12.5 14 Sudeste 35 Sudeste 1.1 1010.1 -2.4 97
2020-01-24 16:00:00 12.3 13 Sudeste 29 Sudeste 2.8 1010.9 -2.5 97
2020-01-24 15:00:00 13 15 Sudeste 35 Sudeste 0.9 1011.7 -2.3 95
2020-01-24 14:00:00 13.5 14 Sudeste 32 Sudeste 0 1012.5 -1.6 90
2020-01-24 13:00:00 13.8 18 Sudeste 33 Sudeste 0 1013.4 0 86
2020-01-24 12:00:00 13.5 16 Sudeste 31 Sudeste 0 1014 0.8 87
2020-01-24 11:00:00 13 14 Sudeste 25 Sudeste 0 1014.1 1.2 96
2020-01-24 10:00:00 10.6 12 Este 24 Este 0.2 1013.4 0.7 99
2020-01-24 09:00:00 10.2 13 Este 26 Este 0 1013.2 0.3 99
2020-01-24 08:00:00 10.1 12 Este 23 Este 0 1012.9 0 99
2020-01-24 07:00:00 10.2 11 Este 21 Este 0 1012.7 -0.2 99
2020-01-24 06:00:00 10.4 10 Este 18 Este 0.1 1012.9 -0.2 99
2020-01-24 05:00:00 9.9 7 Este 20 Este 0 1012.9 -0.4 99
2020-01-24 04:00:00 9.6 12 Este 19 Este 0 1012.9 -0.5 99
2020-01-24 03:00:00 9.7 7 Este 17 Este 0 1013.1 0.1 99
2020-01-24 02:00:00 10.4 10 Este 19 Este 0 1013.3 0.6 99
2020-01-24 01:00:00 10.5 8 Este 19 Este 0 1013.4 0.7 99
2020-01-24 00:00:00 10.3 8 Este 15 Sudeste 0 1013 1.2 98
2020-01-23 23:00:00 11.7 9 Sudeste 22 Sudeste 0.1 1012.7 1.4 98
2020-01-23 22:00:00 12.2 13 Sudeste 26 Sudeste 0.1 1012.7 1.9 96
2020-01-23 21:00:00 12.5 11 Sudeste 24 Sudeste 0.9 1011.8 1.4 97
2020-01-23 20:00:00 12.5 10 Sudeste 25 Sudeste 0 1011.3 1.2 96
2020-01-23 19:00:00 12.7 11 Sudeste 25 Sur 0 1010.8 0.8 96
2020-01-23 18:00:00 12.9 13 Sudeste 25 Sudeste 0 1010.4 0.4 93
2020-01-23 17:00:00 12.9 14 Sur 24 Sur 0.1 1010.1 -0.5 94
2020-01-23 16:00:00 12.2 0 Calma 23 Sudoeste 4.5 1010 -1.2 98
2020-01-23 15:00:00 11.4 5 Nordeste 20 Sudeste 2.1 1010 -1.2 98
2020-01-23 14:00:00 11.5 7 Este 16 Este 8.3 1010.6 -0.2 99
2020-01-23 13:00:00 11.2 7 Sudeste 21 Sudeste 0 1011.2 1.1 97
2020-01-23 12:00:00 10.6 9 Este 29 Este 2.1 1011.2 1.5 99
2020-01-23 11:00:00 10.5 9 Este 44 Este 3.2 1010.8 1.5 99
2020-01-23 10:00:00 10.6 6 Este 20 Este 0 1010.1 1.2 98
2020-01-23 09:00:00 10.9 10 Este 22 Este 0 1009.7 0.7 96
2020-01-23 08:00:00 11.5 12 Sudeste 38 Sur 1.1 1009.3 0 95
2020-01-23 07:00:00 11.1 13 Sudeste 32 Sur 0.1 1008.9 -0.8 98
2020-01-23 06:00:00 10.7 12 Este 24 Este 0 1009 -1 99
2020-01-23 05:00:00 10.3 9 Este 21 Este 0.8 1009.3 -0.8 99
2020-01-23 04:00:00 10.1 13 Este 24 Este 3.3 1009.7 -0.6 99
2020-01-23 03:00:00 10.3 10 Este 21 Este 1.4 1010 0 99
2020-01-23 02:00:00 9.9 8 Este 22 Este 1.5 1010.1 0.2 98
2020-01-23 01:00:00 10.3 9 Este 22 Sudeste 0 1010.3 0.5 98
2020-01-23 00:00:00 10.3 10 Sudeste 27 Sudeste 0.4 1010 0.5 97
2020-01-22 23:00:00 10.4 12 Este 73 Este 1.2 1009.9 0.8 98
2020-01-22 22:00:00 9.9 10 Sudeste 25 Este 0.9 1009.8 0.7 98
2020-01-22 21:00:00 10 11 Este 30 Sudeste 5 1009.5 0.9 99
2020-01-22 20:00:00 10.1 13 Este 22 Este 3.2 1009.1 0.6 98
2020-01-22 19:00:00 10.7 10 Este 19 Este 0.9 1009.1 0.5 98
2020-01-22 18:00:00 10.8 9 Este 23 Este 0 1008.6 -0.5 98
2020-01-22 17:00:00 10.7 12 Este 23 Este 1.8 1008.5 -1.4 99
2020-01-22 16:00:00 9.7 13 Nordeste 23 Nordeste 2.1 1008.6 -2 99
2020-01-22 15:00:00 9.2 13 Nordeste 21 Nordeste 2.1 1009.1 -1.9 99
2020-01-22 14:00:00 9.4 11 Nordeste 21 Este 1.3 1009.9 -0.9 99
2020-01-22 13:00:00 8.9 10 Este 19 Este 2.5 1010.6 0.4 99
2020-01-22 12:00:00 9.1 9 Este 17 Este 0.8 1011 1.2 99
2020-01-22 11:00:00 8.8 5 Este 12 Este 1.2 1010.8 1.3 99
2020-01-22 10:00:00 8.1 6 Este 12 Este 0.8 1010.2 1.3 98
2020-01-22 09:00:00 8.2 6 Este 12 Este 0.1 1009.8 1.2 96
2020-01-22 08:00:00 7.9 5 Este 13 Este 0 1009.5 0.7 95
2020-01-22 07:00:00 8.1 6 Nordeste 14 Nordeste 0 1008.9 0 93
2020-01-22 06:00:00 8.4 6 Nordeste 13 Nordeste 0 1008.6 -0.4 89
2020-01-22 05:00:00 9.2 6 Nordeste 12 Nordeste 0 1008.8 -0.4 80
2020-01-22 04:00:00 9.1 6 Nordeste 12 Norte 0 1008.9 -0.5 78
2020-01-22 03:00:00 9.4 5 Nordeste 12 Norte 0 1009 -0.4 74
2020-01-22 02:00:00 8.8 7 Norte 12 Norte 0 1009.2 0.2 75
2020-01-22 01:00:00 8.9 6 Norte 13 Norte 0 1009.4 0.4 73
2020-01-22 00:00:00 10 6 Nordeste 13 Nordeste 0 1009.4 0.4 71
2020-01-21 23:00:00 9.8 6 Nordeste 10 Nordeste 0 1009 0.1 70
2020-01-21 22:00:00 10.3 6 Nordeste 11 Nordeste 0 1009 1 68
2020-01-21 21:00:00 10.9 6 Nordeste 10 Nordeste 0 1009 1.3 65
2020-01-21 20:00:00 11.1 6 Nordeste 12 Nordeste 0 1008.9 1.6 64
2020-01-21 19:00:00 11.7 7 Nordeste 17 Nordeste 0 1008 0.4 61
2020-01-21 18:00:00 12.4 7 Nordeste 22 Nordeste 0 1007.7 -0.2 58
2020-01-21 17:00:00 13.2 14 Nordeste 27 Nordeste 0 1007.3 -1.2 53
2020-01-21 16:00:00 14.2 9 Nordeste 25 Nordeste 0 1007.6 -1.7 50
2020-01-21 15:00:00 13.6 12 Nordeste 27 Nordeste 0 1007.9 -2.2 50
2020-01-21 14:00:00 14.9 14 Nordeste 30 Nordeste 0 1008.5 -1.6 47
2020-01-21 13:00:00 14.4 12 Nordeste 24 Nordeste 0 1009.3 -0.8 48
2020-01-21 12:00:00 13.2 11 Nordeste 24 Nordeste 0 1010.1 0.1 52
2020-01-21 11:00:00 12.2 11 Nordeste 26 Nordeste 0 1010.1 0.3 54
2020-01-21 10:00:00 9.3 12 Nordeste 22 Nordeste 0 1010.1 0.4 64
2020-01-21 09:00:00 7.4 10 Nordeste 20 Nordeste 0 1010 0.3 72
2020-01-21 08:00:00 6 6 Norte 14 Norte 0 1009.8 -0.1 78
2020-01-21 07:00:00 7.1 6 Norte 17 Norte 0 1009.7 -0.6 75
2020-01-21 06:00:00 7.4 10 Norte 20 Norte 0 1009.7 -0.6 74
2020-01-21 05:00:00 7.5 10 Nordeste 20 Nordeste 0 1009.9 -0.7 74
2020-01-21 04:00:00 7.7 8 Nordeste 22 Nordeste 0 1010.3 -0.6 74
2020-01-21 03:00:00 9 13 Nordeste 24 Nordeste 0 1010.3 -0.6 69
2020-01-21 02:00:00 10 11 Nordeste 25 Nordeste 0 1010.6 -0.1 66
2020-01-21 01:00:00 10.2 16 Nordeste 25 Nordeste 0 1010.9 0.2 64
2020-01-21 00:00:00 9.3 14 Nordeste 28 Nordeste 0 1010.9 0.4 66
2020-01-20 23:00:00 9.8 14 Nordeste 27 Norte 0 1010.7 0.3 62
2020-01-20 22:00:00 9.1 15 Nordeste 29 Nordeste 0 1010.7 1 61
2020-01-20 21:00:00 9.1 14 Nordeste 23 Nordeste 0 1010.5 1.2 62
2020-01-20 20:00:00 10.3 9 Nordeste 21 Nordeste 0 1010.4 1.3 59
2020-01-20 19:00:00 11.5 11 Nordeste 29 Este 0 1009.7 0.9 53
2020-01-20 18:00:00 12.1 12 Nordeste 30 Nordeste 0 1009.3 0 52
2020-01-20 17:00:00 11.8 19 Nordeste 46 Este 0 1009.1 -0.8 49
2020-01-20 16:00:00 12.7 22 Nordeste 46 Este 0 1008.8 -2 45
2020-01-20 15:00:00 12.5 29 Nordeste 53 Este 0 1009.3 -2.3 42
2020-01-20 14:00:00 12.9 25 Nordeste 62 Nordeste 0 1009.9 -1.7 41
2020-01-20 13:00:00 12.2 32 Nordeste 57 Este 0 1010.8 -0.7 42
2020-01-20 12:00:00 11.6 25 Nordeste 54 Nordeste 0 1011.6 0 43
2020-01-20 11:00:00 10.7 29 Nordeste 49 Nordeste 0 1011.6 -0.2 45
2020-01-20 10:00:00 8.7 23 Nordeste 38 Nordeste 0 1011.5 -0.1 50
2020-01-20 09:00:00 6.6 15 Nordeste 28 Este 0 1011.6 -0.4 56
2020-01-20 08:00:00 6.9 16 Nordeste 28 Nordeste 0 1011.8 -0.4 55
2020-01-20 07:00:00 7.5 13 Nordeste 24 Nordeste 0 1011.6 -1.1 53
2020-01-20 06:00:00 8.3 17 Nordeste 34 Nordeste 0 1012 -1.5 50
2020-01-20 05:00:00 8.7 15 Nordeste 37 Nordeste 0 1012.2 -1.8 51
2020-01-20 04:00:00 9.2 17 Nordeste 36 Nordeste 0 1012.7 -1.7 50
2020-01-20 03:00:00 9.2 10 Nordeste 25 Nordeste 0 1013.5 -1 53
2020-01-20 02:00:00 10.6 14 Nordeste 32 Norte 0 1014 -0.5 48
2020-01-20 01:00:00 11.3 14 Nordeste 31 Nordeste 0 1014.4 0.2 45
2020-01-20 00:00:00 11.9 11 Nordeste 22 Nordeste 0 1014.5 0.6 45
2020-01-19 23:00:00 12.4 17 Nordeste 46 Nordeste 0 1014.5 0.4 46
2020-01-19 22:00:00 13 12 Norte 30 Norte 0 1014.2 0.4 45
2020-01-19 21:00:00 13.1 14 Norte 27 Nordeste 0 1013.9 0.4 45
2020-01-19 20:00:00 13.5 9 Nordeste 21 Nordeste 0 1014.1 0.8 50
2020-01-19 19:00:00 14.4 9 Nordeste 32 Nordeste 0 1013.8 0 51
2020-01-19 18:00:00 16.8 11 Nordeste 29 Nordeste 0 1013.5 -0.8 46
2020-01-19 17:00:00 17 17 Norte 33 Norte 0 1013.3 -1.7 47
2020-01-19 16:00:00 17.3 15 Norte 37 Noroeste 0 1013.8 -2.4 49
2020-01-19 15:00:00 16.9 17 Norte 35 Noroeste 0 1014.3 -3.4 51
2020-01-19 14:00:00 15.9 22 Norte 40 Norte 0 1015 -2.8 59
2020-01-19 13:00:00 15.3 20 Norte 34 Norte 0 1016.2 -1.2 67
2020-01-19 12:00:00 14.3 17 Norte 31 Norte 0 1017.7 0.3 69
2020-01-19 11:00:00 12.9 17 Norte 35 Noroeste 0 1017.8 0.3 80
2020-01-19 10:00:00 11.4 21 Noroeste 35 Noroeste 0 1017.4 -0.7 86
2020-01-19 09:00:00 10.4 11 Noroeste 27 Norte 0 1017.4 -0.9 90
2020-01-19 08:00:00 10 12 Noroeste 23 Noroeste 0 1017.5 -1.6 91
2020-01-19 07:00:00 9.4 6 Noroeste 17 Noroeste 0 1018.1 -1.1 93
2020-01-19 06:00:00 10.6 10 Noroeste 18 Noroeste 0 1018.3 -1.3 91
2020-01-19 05:00:00 11.5 6 Noroeste 18 Noroeste 0 1019.1 -1.4 89
2020-01-19 04:00:00 11.6 8 Noroeste 23 Noroeste 0 1019.2 -1.9 89
2020-01-19 03:00:00 12.8 12 Noroeste 26 Noroeste 0 1019.6 -1.7 91
2020-01-19 02:00:00 12.6 8 Noroeste 21 Noroeste 0 1020.5 -0.5 89
2020-01-19 01:00:00 12.8 12 Noroeste 23 Oeste 0 1021.1 0.3 89
2020-01-19 00:00:00 13.3 8 Noroeste 39 Noroeste 0 1021.3 -0.2 91
2020-01-18 23:00:00 14.7 19 Noroeste 41 Noroeste 0 1021 -1.2 98
2020-01-18 22:00:00 15.6 6 Oeste 16 Oeste 0 1020.8 -0.9 99
2020-01-18 21:00:00 15.5 7 Oeste 17 Oeste 0 1021.5 -0.5 99
2020-01-18 20:00:00 15.5 5 Oeste 21 Oeste 0 1022.2 -0.2 99
2020-01-18 19:00:00 15.4 12 Oeste 31 Oeste 0 1021.7 -0.9 99
2020-01-18 18:00:00 16.2 13 Sudoeste 26 Oeste 0 1022 -0.9 97
2020-01-18 17:00:00 16.6 15 Sudoeste 28 Sudoeste 0.1 1022.4 -1.6 97
2020-01-18 16:00:00 16 13 Sudoeste 34 Sudoeste 0 1022.6 -2.7 98
2020-01-18 15:00:00 15.8 23 Sudoeste 32 Sudoeste 0.5 1022.9 -3.3 98
2020-01-18 14:00:00 15.7 17 Sudoeste 30 Sudoeste 1.8 1024 -2.3 99
2020-01-18 13:00:00 15.2 7 Sur 18 Sudeste 0 1025.3 -1 99
2020-01-18 12:00:00 14.3 10 Sudeste 18 Sudeste 0 1026.2 0.3 99
2020-01-18 11:00:00 12.6 5 Este 12 Este 0.2 1026.3 0.2 99
2020-01-18 10:00:00 11.3 5 Este 9 Este 0.3 1026.3 0.4 99
2020-01-18 09:00:00 11.4 4 Este 8 Este 0 1025.9 0.4 98
2020-01-18 08:00:00 11 4 Este 7 Este 0 1026.1 0.4 97
2020-01-18 07:00:00 10.7 0 Calma 10 Este 0 1025.9 -0.3 97
2020-01-18 06:00:00 10.9 6 Este 12 Este 0 1025.5 -1 96
2020-01-18 05:00:00 11.5 7 Este 17 Este 0 1025.7 -1 95
2020-01-18 04:00:00 11.3 6 Nordeste 12 Este 0 1026.2 -1.1 96
2020-01-18 03:00:00 11.3 6 Nordeste 12 Este 0 1026.5 -1.1 96
2020-01-18 02:00:00 11.2 7 Este 12 Este 0 1026.7 -1.1 98
2020-01-18 01:00:00 11 5 Este 10 Nordeste 0 1027.3 -0.4 96
2020-01-18 00:00:00 11.5 6 Este 12 Este 0 1027.6 0.1 97
2020-01-17 23:00:00 11.6 5 Nordeste 9 Nordeste 0 1027.8 0.6 94
2020-01-17 22:00:00 11.7 4 Nordeste 7 Nordeste 0 1027.7 1 94
2020-01-17 21:00:00 12.9 3 Nordeste 10 Nordeste 0 1027.5 1.2 89
2020-01-17 20:00:00 13 6 Nordeste 8 Nordeste 0 1027.2 1 88
2020-01-17 19:00:00 15.2 5 Nordeste 8 Nordeste 0 1026.7 0.5 82
2020-01-17 18:00:00 17.8 6 Este 13 Este 0 1026.3 -0.3 71
2020-01-17 17:00:00 18.7 5 Este 11 Sudeste 0 1026.2 -0.7 67
2020-01-17 16:00:00 17.3 5 Este 13 Este 0 1026.2 -1.7 82
2020-01-17 15:00:00 16.4 7 Nordeste 18 Este 0 1026.6 -1.7 86
2020-01-17 14:00:00 16.3 7 Este 19 Nordeste 0 1026.9 -1.2 88
2020-01-17 13:00:00 15.8 10 Nordeste 17 Este 0 1027.9 0.6 90
2020-01-17 12:00:00 15.3 10 Este 19 Este 0 1028.3 1.4 93
2020-01-17 11:00:00 14 10 Nordeste 18 Nordeste 0 1028.1 2 95
2020-01-17 10:00:00 13.6 9 Nordeste 15 Este 0 1027.3 2 99
2020-01-17 09:00:00 13 7 Nordeste 12 Este 0 1026.9 2.3 97
2020-01-17 08:00:00 15.1 5 Norte 8 Sur 0 1026.1 1.2 96
2020-01-17 07:00:00 14.9 0 Calma 6 Sur 0 1025.3 0.6 97
2020-01-17 06:00:00 15 4 Sur 17 Sudoeste 0.5 1024.6 -0.2 95
2020-01-17 05:00:00 15.3 7 Sudoeste 14 Sudoeste 0.5 1024.9 0.2 94
2020-01-17 04:00:00 15.3 3 Sur 12 Sur 0 1024.7 0 93
2020-01-17 03:00:00 15.4 9 Sur 15 Sur 0 1024.8 -0.1 92
2020-01-17 02:00:00 15.1 8 Sur 18 Sudoeste 0 1024.7 0.2 92
2020-01-17 01:00:00 15.4 12 Sudoeste 20 Sudoeste 0 1024.7 0.8 91
2020-01-17 00:00:00 15.3 6 Sudoeste 14 Sudoeste 0 1024.9 1 90
2020-01-16 23:00:00 15.2 5 Sudoeste 18 Sur 0 1024.5 0.8 90
2020-01-16 22:00:00 15 9 Sur 18 Sur 0 1023.9 0.6 92
2020-01-16 21:00:00 15.1 9 Sudoeste 16 Sudoeste 0 1023.9 1.3 93
2020-01-16 20:00:00 12.9 0 Calma 12 Sudeste 0 1023.7 1.3 93
2020-01-16 19:00:00 14.3 5 Sudeste 10 Sudeste 0 1023.3 0.9 91
2020-01-16 18:00:00 15.4 6 Sur 15 Sur 0 1022.6 0 89
2020-01-16 17:00:00 16.3 8 Sudeste 15 Sudeste 0 1022.4 -0.8 81
2020-01-16 16:00:00 16.5 8 Sur 16 Sudeste 0 1022.4 -1.3 72
2020-01-16 15:00:00 17 8 Sur 18 Sudeste 0 1022.6 -1.8 62
2020-01-16 14:00:00 17.2 8 Sudeste 15 Sur 0 1023.2 -0.6 53
2020-01-16 13:00:00 16.7 8 Sur 14 Sur 0 1023.7 0.1 58
2020-01-16 12:00:00 14.6 8 Este 21 Este 0 1024.4 1.3 66
2020-01-16 11:00:00 12.1 14 Este 24 Este 0 1023.8 1.3 80
2020-01-16 10:00:00 10.4 12 Este 21 Este 0 1023.6 1.1 89
2020-01-16 09:00:00 8.5 11 Nordeste 18 Este 0 1023.1 0.7 92
2020-01-16 08:00:00 8.3 11 Nordeste 18 Este 0 1022.5 0.2 92
2020-01-16 07:00:00 8 9 Nordeste 17 Nordeste 0 1022.5 0.2 91
2020-01-16 06:00:00 8.2 8 Nordeste 19 Este 0 1022.4 0 91
2020-01-16 05:00:00 8.3 11 Este 19 Este 0 1022.3 -0.1 95
2020-01-16 04:00:00 9 11 Este 19 Nordeste 0 1022.3 -0.3 94
2020-01-16 03:00:00 11.5 4 Este 8 Este 0 1022.4 -0.3 97
2020-01-16 02:00:00 12.3 6 Sudeste 16 Sudeste 0 1022.4 -0.3 97
2020-01-16 01:00:00 11.7 5 Este 10 Sudeste 0 1022.6 0.2 97
2020-01-16 00:00:00 12.5 4 Este 9 Sudeste 0 1022.7 0.3 95
2020-01-15 23:00:00 13.1 4 Sudeste 18 Sudeste 0 1022.7 0.8 94
2020-01-15 22:00:00 13.7 8 Sudeste 20 Sudeste 0 1022.4 0.5 94
2020-01-15 21:00:00 14.3 9 Sudeste 19 Sudeste 0 1022.4 1.1 95
2020-01-15 20:00:00 15.1 9 Sudeste 17 Sudeste 0 1021.9 0.8 95
2020-01-15 19:00:00 15.1 7 Sudeste 18 Sudeste 0 1021.9 1.3 94
2020-01-15 18:00:00 16.2 8 Sudeste 18 Sudeste 0 1021.3 0.8 90
2020-01-15 17:00:00 16.1 10 Sudeste 22 Sudeste 0 1021.1 0.2 88
2020-01-15 16:00:00 17.4 13 Sudeste 23 Sur 0 1020.6 -0.8 83
2020-01-15 15:00:00 16.5 12 Sudeste 23 Sur 0 1020.5 -1.4 87
2020-01-15 14:00:00 16.8 11 Sudeste 24 Sudeste 0 1020.9 -0.7 85
2020-01-15 13:00:00 15.9 13 Sudeste 26 Sudeste 0 1021.4 0.3 82
2020-01-15 12:00:00 15.8 14 Sudeste 27 Sudeste 0 1021.9 1.5 80
2020-01-15 11:00:00 11.6 9 Este 18 Este 0 1021.6 1.5 86
2020-01-15 10:00:00 8.6 10 Este 20 Este 0 1021.1 1.6 91
2020-01-15 09:00:00 8.6 12 Este 21 Este 0 1020.4 1.4 90
2020-01-15 08:00:00 8.5 10 Este 21 Este 0 1020.1 1.3 91
2020-01-15 07:00:00 7.2 11 Nordeste 21 Nordeste 0 1019.5 0.4 93
2020-01-15 06:00:00 7.7 10 Este 22 Este 0 1019 -0.3 92
2020-01-15 05:00:00 7.3 13 Este 26 Este 0 1018.8 -0.6 94
2020-01-15 04:00:00 7.5 13 Este 23 Este 0 1019.1 -0.4 93
2020-01-15 03:00:00 6.9 7 Este 16 Este 0 1019.3 -0.3 94
2020-01-15 02:00:00 8 6 Este 13 Este 0 1019.4 -0.2 92
2020-01-15 01:00:00 10.6 6 Este 13 Sudeste 0 1019.5 -0.2 93
2020-01-15 00:00:00 10.8 6 Sudeste 13 Sudeste 0 1019.6 -0.1 93
2020-01-14 23:00:00 11.9 5 Sudeste 12 Sudeste 0 1019.6 0 92
2020-01-14 22:00:00 11.4 5 Este 11 Sudeste 0 1019.7 0.3 93
2020-01-14 21:00:00 12.2 3 Este 8 Sudeste 0 1019.7 0.9 91
2020-01-14 20:00:00 13.6 4 Sudeste 12 Sudeste 0 1019.6 0.7 85
2020-01-14 19:00:00 13.6 5 Sudeste 15 Sudeste 0 1019.4 0.9 82
2020-01-14 18:00:00 14.3 7 Sudeste 15 Sur 0 1018.8 0.1 77
2020-01-14 17:00:00 14.6 7 Sudeste 17 Sudeste 0 1018.9 -0.4 75
2020-01-14 16:00:00 14.4 10 Sudeste 16 Sur 0 1018.5 -1.8 74
2020-01-14 15:00:00 14.8 7 Sudeste 15 Sudeste 0 1018.7 -2.1 67
2020-01-14 14:00:00 14.8 10 Sudeste 16 Sur 0 1019.3 -1.7 66
2020-01-14 13:00:00 14 5 Sudeste 15 Este 0 1020.3 -0.1 70
2020-01-14 12:00:00 12.8 7 Este 17 Este 0 1020.8 0.8 73
2020-01-14 11:00:00 9.4 12 Este 22 Este 0 1021 1.4 88
2020-01-14 10:00:00 7 12 Este 20 Este 0 1020.4 1.3 94
2020-01-14 09:00:00 5.9 11 Nordeste 18 Nordeste 0 1020 1.1 97
2020-01-14 08:00:00 4.8 10 Nordeste 17 Este 0 1019.6 0.4 98
2020-01-14 07:00:00 5.9 10 Nordeste 15 Este 0 1019.1 -0.3 97
2020-01-14 06:00:00 6 9 Nordeste 15 Nordeste 0 1018.9 -0.7 98
2020-01-14 05:00:00 5.4 7 Este 12 Este 0 1019.2 -0.7 99
2020-01-14 04:00:00 5.4 7 Nordeste 12 Este 0 1019.4 -0.9 98
2020-01-14 03:00:00 5.1 10 Este 13 Nordeste 0 1019.6 -0.9 97
2020-01-14 02:00:00 6.9 7 Este 12 Nordeste 0 1019.9 -0.7 95
2020-01-14 01:00:00 6.6 6 Nordeste 11 Nordeste 0 1020.3 -0.4 98
2020-01-14 00:00:00 5.2 3 Nordeste 5 Norte 0 1020.5 -0.1 96
2020-01-13 23:00:00 5.1 4 Norte 5 Norte 0 1020.6 -0.2 96
2020-01-13 22:00:00 5.5 0 Calma 5 Este 0 1020.7 -0.2 93
2020-01-13 21:00:00 6.4 4 Este 7 Este 0 1020.6 -0.2 93
2020-01-13 20:00:00 8.6 3 Este 4 Este 0 1020.8 0.1 84
2020-01-13 19:00:00 12.3 0 Calma 7 Oeste 0 1020.9 0.2 79
2020-01-13 18:00:00 14.1 7 Oeste 12 Oeste 0 1020.8 -0.2 72
2020-01-13 17:00:00 15.2 6 Sudoeste 9 Sudoeste 0 1020.7 -1.1 65
2020-01-13 16:00:00 15.1 6 Sudoeste 10 Sudoeste 0 1020.7 -2 63
2020-01-13 15:00:00 15.2 6 Sudoeste 12 Sur 0 1021 -2.8 62
2020-01-13 14:00:00 15.3 7 Sur 15 Sur 0 1021.8 -1.9 60
2020-01-13 13:00:00 15.5 6 Sur 14 Este 0 1022.7 -0.5 61
2020-01-13 12:00:00 13 8 Nordeste 18 Este 0 1023.8 1 65
2020-01-13 11:00:00 9.8 10 Este 19 Este 0 1023.7 1.1 74
2020-01-13 10:00:00 7.8 9 Este 20 Este 0 1023.2 0.8 79
2020-01-13 09:00:00 5.7 10 Nordeste 20 Este 0 1022.8 0.5 86
2020-01-13 08:00:00 5.7 9 Nordeste 18 Este 0 1022.6 0 86
2020-01-13 07:00:00 5.3 10 Nordeste 15 Este 0 1022.4 -0.4 88
2020-01-13 06:00:00 6 8 Nordeste 15 Este 0 1022.3 -0.8 85
2020-01-13 05:00:00 6.6 11 Este 20 Este 0 1022.6 -0.8 82
2020-01-13 04:00:00 7.1 11 Nordeste 18 Nordeste 0 1022.8 -1.3 81
2020-01-13 03:00:00 7.2 10 Nordeste 17 Este 0 1023.1 -1.5 80
2020-01-13 02:00:00 7.2 9 Nordeste 14 Nordeste 0 1023.4 -1.2 80
2020-01-13 01:00:00 7.6 6 Nordeste 13 Nordeste 0 1024.1 -0.5 73
2020-01-13 00:00:00 9.2 10 Nordeste 14 Nordeste 0 1024.6 0.1 65
2020-01-12 23:00:00 9.3 9 Nordeste 13 Norte 0 1024.6 0 67
2020-01-12 22:00:00 10.8 9 Norte 13 Norte 0 1024.6 0.4 68
2020-01-12 21:00:00 7.6 5 Norte 8 Norte 0 1024.5 0.5 87
2020-01-12 20:00:00 8.1 3 Norte 5 Norte 0 1024.6 0.7 89
2020-01-12 19:00:00 12 0 Calma 4 Sudoeste 0 1024.2 0.3 78
2020-01-12 18:00:00 15.4 4 Oeste 9 Oeste 0 1024 -0.4 69
2020-01-12 17:00:00 16.6 5 Sudoeste 11 Oeste 0 1023.9 -1.4 61
2020-01-12 16:00:00 16.3 6 Sudoeste 12 Sudoeste 0 1023.9 -2.5 58
2020-01-12 15:00:00 16 9 Sudoeste 12 Sudoeste 0 1024.4 -3.1 58
2020-01-12 14:00:00 17.4 5 Sur 17 Este 0 1025.3 -1.9 53
2020-01-12 13:00:00 16.1 8 Nordeste 17 Este 0 1026.4 -0.3 51
2020-01-12 12:00:00 13.6 12 Nordeste 22 Nordeste 0 1027.5 1 59
2020-01-12 11:00:00 11.7 12 Nordeste 23 Este 0 1027.2 0.9 64
2020-01-12 10:00:00 8.7 13 Nordeste 22 Nordeste 0 1026.7 0.5 73
2020-01-12 09:00:00 6.1 13 Nordeste 19 Nordeste 0 1026.5 0.8 82
2020-01-12 08:00:00 6.2 13 Nordeste 18 Nordeste 0 1026.3 0.3 79
2020-01-12 07:00:00 6.1 11 Nordeste 18 Nordeste 0 1026.2 -0.1 77
2020-01-12 06:00:00 6.8 11 Nordeste 16 Nordeste 0 1025.7 -0.4 75
2020-01-12 05:00:00 6.6 8 Nordeste 12 Nordeste 0 1026 -0.1 75
2020-01-12 04:00:00 7.1 7 Nordeste 12 Este 0 1026.3 0.2 72
2020-01-12 03:00:00 7.8 7 Nordeste 12 Nordeste 0 1026.1 -0.2 68
2020-01-12 02:00:00 7.6 9 Nordeste 12 Nordeste 0 1026.1 0.1 68
2020-01-12 01:00:00 7.5 8 Nordeste 13 Nordeste 0 1026.1 0.3 69
2020-01-12 00:00:00 8.4 5 Norte 14 Nordeste 0 1026.3 0.7 66
2020-01-11 23:00:00 9.7 11 Nordeste 14 Nordeste 0 1026 0.5 63
2020-01-11 22:00:00 9.9 10 Nordeste 13 Nordeste 0 1025.8 0.9 65
2020-01-11 21:00:00 10.2 9 Nordeste 12 Nordeste 0 1025.6 1.5 67
2020-01-11 20:00:00 11.6 7 Norte 10 Norte 0 1025.5 1.7 64
2020-01-11 19:00:00 12.9 5 Nordeste 8 Nordeste 0 1024.9 1 62
2020-01-11 18:00:00 16.8 0 Calma 5 Sudoeste 0 1024.1 0 54
2020-01-11 17:00:00 17.1 4 Sudoeste 9 Sur 0 1023.8 -0.9 51
2020-01-11 16:00:00 17.6 5 Sur 11 Sur 0 1023.9 -1.4 49
2020-01-11 15:00:00 17.6 5 Sur 16 Este 0 1024.1 -1.6 47
2020-01-11 14:00:00 16.8 8 Nordeste 23 Nordeste 0 1024.7 -0.7 45
2020-01-11 13:00:00 15.2 15 Este 28 Nordeste 0 1025.3 0.5 45
2020-01-11 12:00:00 13.6 18 Este 33 Nordeste 0 1025.7 1.5 47
2020-01-11 11:00:00 12.3 17 Nordeste 31 Este 0 1025.4 1.5 52
2020-01-11 10:00:00 9.8 16 Nordeste 26 Nordeste 0 1024.8 1.6 58
2020-01-11 09:00:00 7.2 14 Nordeste 22 Nordeste 0 1024.2 1.1 65
2020-01-11 08:00:00 8.1 16 Nordeste 25 Nordeste 0 1023.9 0.7 62
2020-01-11 07:00:00 8.6 16 Nordeste 26 Nordeste 0 1023.2 -0.1 60
2020-01-11 06:00:00 8.3 15 Nordeste 26 Nordeste 0 1023.1 -0.3 62
2020-01-11 05:00:00 8.8 14 Nordeste 26 Nordeste 0 1023.2 -0.2 60
2020-01-11 04:00:00 9.2 16 Nordeste 25 Nordeste 0 1023.3 -0.4 60
2020-01-11 03:00:00 8.3 12 Nordeste 19 Norte 0 1023.4 -0.4 69
2020-01-11 02:00:00 8.2 12 Nordeste 19 Norte 0 1023.4 -0.2 72
2020-01-11 01:00:00 8.7 10 Nordeste 17 Norte 0 1023.7 0.3 72
2020-01-11 00:00:00 9 10 Nordeste 18 Norte 0 1023.8 0.5 72
2020-01-10 23:00:00 9.1 9 Nordeste 18 Norte 0 1023.6 1 73
2020-01-10 22:00:00 10 9 Norte 14 Norte 0 1023.4 1.4 71
2020-01-10 21:00:00 10.5 7 Norte 13 Norte 0 1023.3 2.2 70
2020-01-10 20:00:00 10.5 6 Norte 12 Norte 0 1022.6 1.7 69
2020-01-10 19:00:00 12.6 5 Norte 9 Nordeste 0 1022 1 55
2020-01-10 18:00:00 15.4 5 Nordeste 17 Norte 0 1021.1 0.2 44
2020-01-10 17:00:00 16.6 8 Norte 19 Norte 0 1020.9 -0.8 43
2020-01-10 16:00:00 16.6 8 Norte 17 Norte 0 1021 -1.4 42
2020-01-10 15:00:00 16.1 6 Norte 21 Nordeste 0 1020.9 -2.3 46
2020-01-10 14:00:00 15 12 Norte 24 Norte 0 1021.7 -1.6 50
2020-01-10 13:00:00 14.3 12 Norte 25 Norte 0 1022.4 -0.7 55
2020-01-10 12:00:00 12.7 15 Norte 29 Noroeste 0 1023.2 0.6 66
2020-01-10 11:00:00 11 18 Norte 31 Norte 0 1023.3 0.8 76
2020-01-10 10:00:00 8.7 14 Norte 27 Norte 0 1023.1 0.7 86
2020-01-10 09:00:00 7.5 15 Norte 23 Noroeste 0 1022.6 0.3 92
2020-01-10 08:00:00 7.4 10 Norte 22 Norte 0 1022.5 0.2 92
2020-01-10 07:00:00 8.3 12 Norte 20 Norte 0 1022.4 0 92
2020-01-10 06:00:00 9.1 11 Noroeste 21 Norte 0 1022.3 0.1 92
2020-01-10 05:00:00 10.2 13 Norte 27 Noroeste 0 1022.3 -0.4 92
2020-01-10 04:00:00 11 17 Norte 36 Noroeste 0 1022.4 -0.8 93
2020-01-10 03:00:00 10.6 7 Noroeste 21 Noroeste 0 1022.2 -1.2 99
2020-01-10 02:00:00 8.8 6 Norte 9 Norte 0 1022.7 -0.7 95
2020-01-10 01:00:00 9.1 6 Norte 9 Noroeste 0 1023.2 -0.1 92
2020-01-10 00:00:00 9.5 6 Norte 13 Norte 0 1023.4 0.3 89
2020-01-09 23:00:00 9.1 4 Norte 10 Norte 0 1023.4 0.3 89
2020-01-09 22:00:00 8.3 4 Noroeste 8 Oeste 0 1023.3 0.4 89
2020-01-09 21:00:00 8.1 3 Noroeste 5 Noroeste 0 1023.1 0.6 92
2020-01-09 20:00:00 10.7 3 Noroeste 9 Noroeste 0 1023.1 1.1 88
2020-01-09 19:00:00 11.4 0 Calma 8 Oeste 0 1022.9 0.9 87
2020-01-09 18:00:00 13.5 0 Calma 8 Sudeste 0 1022.5 -0.1 79
2020-01-09 17:00:00 13.7 4 Sur 11 Sur 0 1022 -1.1 78
2020-01-09 16:00:00 13.6 6 Sudoeste 13 Oeste 0 1022 -1.9 76
2020-01-09 15:00:00 13.1 6 Sudoeste 12 Oeste 0 1022.6 -1.6 78
2020-01-09 14:00:00 13.3 6 Sudoeste 12 Sudoeste 0 1023.1 -1.5 79
2020-01-09 13:00:00 13 6 Sudoeste 16 Sudeste 0 1023.9 0 81
2020-01-09 12:00:00 12.3 7 Sudeste 14 Sur 0 1024.2 1.1 82
2020-01-09 11:00:00 9 8 Este 18 Este 0 1024.6 1.6 96
2020-01-09 10:00:00 6.7 8 Este 15 Este 0 1023.9 1.2 99
2020-01-09 09:00:00 6.3 6 Este 14 Este 0 1023.1 0.4 99
2020-01-09 08:00:00 5.2 6 Nordeste 12 Nordeste 0 1023 0.2 98
2020-01-09 07:00:00 3.5 2 Norte 7 Nordeste 0 1022.7 -0.4 99
2020-01-09 06:00:00 3.9 5 Nordeste 8 Nordeste 0 1022.7 -0.4 97
2020-01-09 05:00:00 4.2 3 Nordeste 5 Nordeste 0 1022.8 -0.2 97
2020-01-09 04:00:00 3 2 Nordeste 5 Este 0 1023.1 0 96
2020-01-09 03:00:00 3.6 5 Este 6 Este 0 1023.1 -0.3 96
2020-01-09 02:00:00 4.9 0 Calma 3 Noroeste 0 1023 -0.1 93
2020-01-09 01:00:00 7 0 Calma 9 Noroeste 0 1023.1 0.1 90
2020-01-09 00:00:00 7.5 3 Noroeste 4 Noroeste 0 1023.4 0.6 88
2020-01-08 23:00:00 8.7 5 Noroeste 11 Norte 0 1023.1 0.4 88
2020-01-08 22:00:00 9.4 5 Noroeste 8 Noroeste 0 1023 0.6 94
2020-01-08 21:00:00 9.4 5 Noroeste 10 Noroeste 0 1022.8 0.4 89
2020-01-08 20:00:00 9.4 4 Norte 6 Norte 0 1022.7 0.4 89
2020-01-08 19:00:00 12.5 3 Noroeste 5 Noroeste 0 1022.4 0.1 83
2020-01-08 18:00:00 15.9 2 Sudoeste 8 Oeste 0 1022.4 -0.2 74
2020-01-08 17:00:00 16.6 5 Oeste 11 Sudoeste 0 1022.3 -0.8 72
2020-01-08 16:00:00 17.2 5 Sudoeste 11 Oeste 0 1022.3 -1.5 66
2020-01-08 15:00:00 17.1 5 Sudoeste 12 Oeste 0 1022.6 -2.1 67
2020-01-08 14:00:00 16.5 5 Sudoeste 13 Sudoeste 0 1023.1 -1.6 68
2020-01-08 13:00:00 17.3 3 Nordeste 12 Nordeste 0 1023.8 -0.9 53
2020-01-08 12:00:00 14.7 8 Nordeste 22 Nordeste 0 1024.7 0.8 60
2020-01-08 11:00:00 12.7 15 Nordeste 24 Nordeste 0 1024.7 1.2 66
2020-01-08 10:00:00 10.2 4 Nordeste 22 Nordeste 0 1024.7 1.4 78
2020-01-08 09:00:00 7.4 15 Nordeste 24 Nordeste 0 1023.9 0.5 86
2020-01-08 08:00:00 7.7 15 Nordeste 23 Nordeste 0 1023.5 -0.2 84
2020-01-08 07:00:00 7.5 14 Nordeste 20 Nordeste 0 1023.3 -0.7 87
2020-01-08 06:00:00 7.2 12 Nordeste 17 Este 0 1023.4 -0.7 90
2020-01-08 05:00:00 7.2 6 Nordeste 12 Nordeste 0 1023.7 -0.4 88
2020-01-08 04:00:00 7.4 9 Nordeste 13 Nordeste 0 1024 -0.6 87
2020-01-08 03:00:00 6.1 5 Este 7 Nordeste 0 1024.1 -0.9 91
2020-01-08 02:00:00 6 4 Nordeste 5 Nordeste 0 1024.1 -1.1 91
2020-01-08 01:00:00 6.2 4 Este 8 Nordeste 0 1024.6 -0.6 91
2020-01-08 00:00:00 8 5 Nordeste 9 Nordeste 0 1025 0 85
2020-01-07 23:00:00 8.1 6 Nordeste 9 Nordeste 0 1025.2 0.3 89
2020-01-07 22:00:00 6.9 4 Nordeste 5 Nordeste 0 1025.2 0.6 89
2020-01-07 21:00:00 6.9 3 Norte 4 Norte 0 1025 0.6 89
2020-01-07 20:00:00 9.6 5 Norte 7 Norte 0 1024.9 0.4 89
2020-01-07 19:00:00 12.2 2 Noroeste 7 Noroeste 0 1024.6 0 82
2020-01-07 18:00:00 15.3 3 Oeste 8 Sudoeste 0 1024.4 -0.1 70
2020-01-07 17:00:00 15.8 4 Sudoeste 11 Sudoeste 0 1024.5 -0.6 71
2020-01-07 16:00:00 16.1 5 Oeste 13 Oeste 0 1024.6 -1.5 67
2020-01-07 15:00:00 17 5 Sudoeste 13 Este 0 1024.5 -2 62
2020-01-07 14:00:00 16.9 5 Nordeste 19 Nordeste 0 1025.1 -1.6 54
2020-01-07 13:00:00 15.3 9 Este 19 Este 0 1026.1 -0.2 60
2020-01-07 12:00:00 14.4 7 Este 29 Nordeste 0 1026.5 0.5 65
2020-01-07 11:00:00 11.6 17 Nordeste 29 Nordeste 0 1026.7 1 75
2020-01-07 10:00:00 9.2 12 Nordeste 22 Nordeste 0 1026.3 0.8 86
2020-01-07 09:00:00 6.3 6 Nordeste 13 Nordeste 0 1026 0.8 95
2020-01-07 08:00:00 6.4 5 Nordeste 15 Nordeste 0 1025.7 0.5 94
2020-01-07 07:00:00 6.5 5 Nordeste 13 Norte 0 1025.5 0.5 94
2020-01-07 06:00:00 7.2 8 Nordeste 17 Nordeste 0 1025.2 0.2 92
2020-01-07 05:00:00 8 10 Nordeste 19 Este 0 1025.2 0.2 89
2020-01-07 04:00:00 8.6 11 Nordeste 19 Este 0 1025 -0.1 87
2020-01-07 03:00:00 9.6 9 Este 16 Este 0 1025 -0.5 86
2020-01-07 02:00:00 8.5 7 Este 12 Nordeste 0 1025 -0.4 88
2020-01-07 01:00:00 9.1 9 Nordeste 12 Nordeste 0 1025.1 -0.2 86
2020-01-07 00:00:00 9.2 8 Nordeste 13 Nordeste 0 1025.5 0.9 87
2020-01-06 23:00:00 9.5 7 Nordeste 13 Nordeste 0 1025.4 0.8 84
2020-01-06 22:00:00 9.9 6 Norte 10 Norte 0 1025.3 1.4 84
2020-01-06 21:00:00 10.3 5 Norte 9 Norte 0 1024.6 1.5 81
2020-01-06 20:00:00 10.7 6 Norte 9 Norte 0 1024.6 1.5 79
2020-01-06 19:00:00 11.7 4 Norte 6 Noroeste 0 1023.9 1.2 75
2020-01-06 18:00:00 15.6 2 Oeste 9 Oeste 0 1023.1 0.1 65
2020-01-06 17:00:00 15.5 7 Oeste 12 Oeste 0 1023.1 -0.7 68
2020-01-06 16:00:00 15.6 5 Sudoeste 9 Sudoeste 0 1022.7 -2 69
2020-01-06 15:00:00 15.9 6 Sudoeste 10 Sur 0 1023 -2.7 65
2020-01-06 14:00:00 15.8 6 Sudoeste 9 Sur 0 1023.8 -1.8 65
2020-01-06 13:00:00 16.1 5 Sudoeste 13 Nordeste 0 1024.7 -0.4 63
2020-01-06 12:00:00 12.8 8 Nordeste 18 Nordeste 0 1025.7 1.6 74
2020-01-06 11:00:00 10.8 13 Nordeste 18 Nordeste 0 1025.6 1.9 82
2020-01-06 10:00:00 8.4 11 Nordeste 18 Nordeste 0 1025.1 2.1 90